Time;durP1;ratioP1;P1;durP2;ratioP2;P2;SDS_P1;SDS_P2;PMS_P1;PMS_P2;Temp;Humidity;BMP_temperature;BMP_pressure;BME280_temperature;BME280_humidity;BME280_pressure;Samples;Min_cycle;Max_cycle;Signal;HPM_P1;HPM_P2
2022/02/16 00:00:48;;;;;;;49.53;33.47;;;;;;;;;;10255788;28;20446;-67
2022/02/16 00:05:46;;;;;;;40.05;27.30;;;;;;;;;;10253304;28;20069;-67
2022/02/16 00:10:45;;;;;;;42.92;27.90;;;;;;;;;;10259710;28;20072;-66
2022/02/16 00:15:43;;;;;;;36.75;26.65;;;;;;;;;;10249401;28;20065;-68
2022/02/16 00:20:43;;;;;;;20.73;15.75;;;;;;;;;;10257213;28;20045;-68
2022/02/16 00:25:41;;;;;;;47.15;30.38;;;;;;;;;;10250459;28;20347;-69
2022/02/16 00:30:39;;;;;;;50.40;32.88;;;;;;;;;;10255301;28;20060;-68
2022/02/16 00:35:39;;;;;;;40.30;27.35;;;;;;;;;;10252931;28;20077;-68
2022/02/16 00:40:40;;;;;;;55.80;34.35;;;;;;;;;;10258304;28;20076;-69
2022/02/16 00:45:38;;;;;;;41.60;29.17;;;;;;;;;;10248023;28;20127;-68
2022/02/16 00:50:36;;;;;;;34.38;21.70;;;;;;;;;;10255825;28;20514;-68
2022/02/16 00:55:35;;;;;;;29.90;21.58;;;;;;;;;;10243084;28;20451;-68
2022/02/16 01:00:42;;;;;;;29.83;22.75;;;;;;;;;;10252189;28;20053;-68
2022/02/16 01:05:41;;;;;;;35.45;25.92;;;;;;;;;;10260971;28;20049;-68
2022/02/16 01:10:40;;;;;;;23.70;17.30;;;;;;;;;;10252939;28;20042;-69
2022/02/16 01:15:41;;;;;;;14.10;11.30;;;;;;;;;;10263907;28;20084;-68
2022/02/16 01:20:40;;;;;;;15.30;10.93;;;;;;;;;;10252726;28;20037;-68
2022/02/16 01:25:41;;;;;;;15.15;12.70;;;;;;;;;;10262686;28;20052;-68
2022/02/16 01:30:49;;;;;;;12.02;9.23;;;;;;;;;;10263141;28;20088;-68
2022/02/16 01:35:57;;;;;;;11.93;10.23;;;;;;;;;;10251725;28;20052;-68
2022/02/16 01:40:56;;;;;;;11.30;9.38;;;;;;;;;;10251557;28;20049;-67
2022/02/16 01:45:56;;;;;;;13.13;9.70;;;;;;;;;;10267815;28;20045;-68
2022/02/16 01:50:54;;;;;;;14.13;9.45;;;;;;;;;;10267117;28;20056;-68
2022/02/16 01:56:06;;;;;;;14.10;9.77;;;;;;;;;;10246170;28;20510;-68
2022/02/16 02:01:09;;;;;;;13.68;9.13;;;;;;;;;;10250772;28;20052;-67
2022/02/16 02:06:08;;;;;;;10.82;8.73;;;;;;;;;;10251066;28;20080;-68
2022/02/16 02:11:07;;;;;;;12.55;9.27;;;;;;;;;;10259313;28;20040;-68
2022/02/16 02:16:14;;;;;;;11.43;8.70;;;;;;;;;;10244063;28;20073;-68
2022/02/16 02:21:16;;;;;;;13.65;10.80;;;;;;;;;;10250214;28;20052;-67
2022/02/16 02:26:15;;;;;;;13.27;9.85;;;;;;;;;;10248756;28;20068;-67
2022/02/16 02:31:14;;;;;;;10.57;9.23;;;;;;;;;;10245058;28;20077;-68
2022/02/16 02:36:15;;;;;;;12.30;9.02;;;;;;;;;;10250828;28;20338;-68
2022/02/16 02:41:15;;;;;;;16.67;14.63;;;;;;;;;;10244095;28;20053;-67
2022/02/16 02:46:14;;;;;;;14.45;9.48;;;;;;;;;;10242131;28;20085;-67
2022/02/16 02:51:20;;;;;;;11.85;8.75;;;;;;;;;;10251471;28;20081;-67
2022/02/16 02:56:20;;;;;;;15.88;12.32;;;;;;;;;;10256703;28;20077;-68
2022/02/16 03:01:21;;;;;;;12.30;9.45;;;;;;;;;;10244855;28;20071;-68
2022/02/16 03:06:23;;;;;;;11.15;8.82;;;;;;;;;;10242682;28;20173;-68
2022/02/16 03:11:23;;;;;;;11.25;9.63;;;;;;;;;;10242208;28;20168;-67
2022/02/16 03:16:23;;;;;;;11.77;10.18;;;;;;;;;;10242458;28;20088;-68
2022/02/16 03:21:25;;;;;;;10.20;8.85;;;;;;;;;;10242313;28;20049;-68
2022/02/16 03:26:27;;;;;;;12.25;10.25;;;;;;;;;;10247179;28;20472;-68
2022/02/16 03:31:27;;;;;;;17.95;11.05;;;;;;;;;;10245125;28;20434;-67
2022/02/16 03:36:33;;;;;;;14.43;10.07;;;;;;;;;;10242210;28;20083;-68
2022/02/16 03:41:33;;;;;;;38.63;28.95;;;;;;;;;;10254459;28;20050;-67
2022/02/16 03:46:31;;;;;;;21.85;18.20;;;;;;;;;;10242690;28;20085;-68
2022/02/16 03:51:30;;;;;;;16.02;12.27;;;;;;;;;;10242172;28;20065;-68
2022/02/16 03:56:28;;;;;;;17.23;12.93;;;;;;;;;;10248208;28;20439;-68
2022/02/16 04:01:30;;;;;;;16.58;13.45;;;;;;;;;;10238785;28;20049;-68
2022/02/16 04:06:28;;;;;;;15.82;12.25;;;;;;;;;;10242238;28;20069;-68
2022/02/16 04:11:27;;;;;;;19.10;12.18;;;;;;;;;;10242983;28;20080;-67
2022/02/16 04:16:26;;;;;;;17.98;12.55;;;;;;;;;;10244259;28;20100;-68
2022/02/16 04:21:27;;;;;;;18.77;11.23;;;;;;;;;;10242248;28;20065;-67
2022/02/16 04:26:25;;;;;;;19.60;14.80;;;;;;;;;;10243668;28;20091;-67
2022/02/16 04:31:26;;;;;;;47.97;33.50;;;;;;;;;;10254409;28;20060;-68
2022/02/16 04:36:26;;;;;;;25.15;17.77;;;;;;;;;;10242854;28;20090;-66
2022/02/16 04:41:29;;;;;;;12.00;10.18;;;;;;;;;;10252227;28;20084;-67
2022/02/16 04:46:31;;;;;;;13.52;10.00;;;;;;;;;;10241084;28;20049;-65
2022/02/16 04:51:32;;;;;;;15.35;8.38;;;;;;;;;;10242914;28;20091;-66
2022/02/16 04:56:30;;;;;;;11.40;9.00;;;;;;;;;;10255994;28;20073;-66
2022/02/16 05:01:29;;;;;;;14.70;8.82;;;;;;;;;;10241604;28;20083;-66
2022/02/16 05:06:29;;;;;;;10.15;8.95;;;;;;;;;;10242978;28;20044;-65
2022/02/16 05:11:30;;;;;;;10.95;8.02;;;;;;;;;;10239220;28;20565;-65
2022/02/16 05:16:33;;;;;;;11.85;8.75;;;;;;;;;;10240942;28;20097;-66
2022/02/16 05:21:32;;;;;;;10.70;8.90;;;;;;;;;;10249416;28;20538;-66
2022/02/16 05:26:39;;;;;;;9.88;7.90;;;;;;;;;;10238884;28;20477;-65
2022/02/16 05:31:38;;;;;;;12.57;9.30;;;;;;;;;;10242428;28;20088;-67
2022/02/16 05:36:37;;;;;;;15.75;11.85;;;;;;;;;;10238878;28;20084;-66
2022/02/16 05:41:35;;;;;;;10.75;9.00;;;;;;;;;;10237799;28;20088;-69
2022/02/16 05:46:35;;;;;;;12.18;9.20;;;;;;;;;;10251611;28;20049;-65
2022/02/16 05:51:33;;;;;;;12.75;9.38;;;;;;;;;;10252475;28;20092;-68
2022/02/16 05:56:33;;;;;;;61.28;36.53;;;;;;;;;;10260676;28;20084;-67
2022/02/16 06:01:32;;;;;;;67.63;40.22;;;;;;;;;;10246286;28;20087;-67
2022/02/16 06:06:33;;;;;;;89.10;65.22;;;;;;;;;;10252115;28;20526;-67
2022/02/16 06:11:38;;;;;;;20.58;14.77;;;;;;;;;;10239354;28;20072;-67
2022/02/16 06:16:42;;;;;;;17.15;15.35;;;;;;;;;;10242747;28;20100;-67
2022/02/16 06:21:44;;;;;;;14.57;12.25;;;;;;;;;;10246473;28;20053;-67
2022/02/16 06:26:43;;;;;;;13.82;12.43;;;;;;;;;;10245108;28;20040;-67
2022/02/16 06:31:42;;;;;;;15.65;11.90;;;;;;;;;;10261681;28;20129;-67
2022/02/16 06:36:42;;;;;;;12.27;10.52;;;;;;;;;;10249376;28;20149;-67
2022/02/16 06:41:42;;;;;;;15.65;13.57;;;;;;;;;;10259945;28;20045;-67
2022/02/16 06:46:45;;;;;;;42.15;22.33;;;;;;;;;;10247732;28;20069;-67
2022/02/16 06:51:50;;;;;;;69.10;48.15;;;;;;;;;;10257873;28;20069;-67
2022/02/16 06:56:53;;;;;;;134.18;92.40;;;;;;;;;;10245667;28;20083;-67
2022/02/16 07:01:58;;;;;;;50.38;34.80;;;;;;;;;;10247058;28;20049;-67
2022/02/16 07:06:57;;;;;;;87.45;51.10;;;;;;;;;;10246895;28;20072;-67
2022/02/16 07:11:57;;;;;;;72.82;46.63;;;;;;;;;;10253254;28;20037;-67
2022/02/16 07:16:56;;;;;;;86.97;54.90;;;;;;;;;;10248113;28;20076;-67
2022/02/16 07:21:57;;;;;;;77.25;50.88;;;;;;;;;;10246406;28;20481;-68
2022/02/16 07:26:59;;;;;;;68.65;44.90;;;;;;;;;;10250068;28;20053;-68
2022/02/16 07:31:58;;;;;;;64.70;40.15;;;;;;;;;;10244762;28;20045;-68
2022/02/16 07:37:00;;;;;;;53.92;37.80;;;;;;;;;;10243936;28;20041;-68
2022/02/16 07:42:02;;;;;;;48.53;33.10;;;;;;;;;;10241960;28;20092;-68
2022/02/16 07:47:18;;;;;;;69.15;41.47;;;;;;;;;;10238759;28;20049;-68
2022/02/16 07:52:17;;;;;;;104.78;53.92;;;;;;;;;;10240310;28;20080;-68
2022/02/16 07:57:40;;;;;;;129.52;84.00;;;;;;;;;;10240338;28;20149;-66
2022/02/16 08:02:39;;;;;;;79.07;42.30;;;;;;;;;;10241178;28;20502;-66
2022/02/16 08:07:43;;;;;;;72.63;41.60;;;;;;;;;;10239537;28;20104;-66
2022/02/16 08:12:47;;;;;;;60.03;37.75;;;;;;;;;;10243429;28;20044;-65
2022/02/16 08:17:46;;;;;;;69.72;42.33;;;;;;;;;;10240299;28;20088;-66
2022/02/16 08:22:44;;;;;;;99.35;45.88;;;;;;;;;;10244837;28;20084;-66
2022/02/16 08:27:43;;;;;;;65.25;39.75;;;;;;;;;;10243736;28;20045;-68
2022/02/16 08:32:52;;;;;;;70.97;44.58;;;;;;;;;;10240239;28;20056;-68
2022/02/16 08:38:04;;;;;;;70.38;42.85;;;;;;;;;;10255578;28;20080;-68
2022/02/16 08:43:02;;;;;;;79.95;43.97;;;;;;;;;;10253654;28;20499;-68
2022/02/16 08:48:02;;;;;;;75.13;43.50;;;;;;;;;;10242217;28;20084;-68
2022/02/16 08:53:01;;;;;;;85.40;50.55;;;;;;;;;;10246953;28;20067;-68
2022/02/16 08:57:59;;;;;;;68.72;42.25;;;;;;;;;;10250291;28;20076;-67
2022/02/16 09:02:57;;;;;;;63.70;36.88;;;;;;;;;;10243341;28;20061;-68
2022/02/16 09:07:57;;;;;;;55.97;34.78;;;;;;;;;;10241412;28;20069;-68
2022/02/16 09:12:55;;;;;;;68.50;33.85;;;;;;;;;;10241935;28;20093;-68
2022/02/16 09:17:53;;;;;;;56.47;34.55;;;;;;;;;;10241786;28;20084;-68
2022/02/16 09:22:52;;;;;;;60.53;37.83;;;;;;;;;;10248458;28;20072;-69
2022/02/16 09:27:52;;;;;;;56.35;36.10;;;;;;;;;;10248659;28;20081;-68
2022/02/16 09:32:50;;;;;;;54.13;35.85;;;;;;;;;;10251158;28;20422;-68
2022/02/16 09:37:48;;;;;;;50.65;32.40;;;;;;;;;;10250949;28;20080;-67
2022/02/16 09:42:47;;;;;;;51.05;35.53;;;;;;;;;;10253885;28;20123;-68
2022/02/16 09:47:46;;;;;;;39.83;25.25;;;;;;;;;;10251864;28;20577;-68
2022/02/16 09:52:45;;;;;;;37.85;23.67;;;;;;;;;;10254777;28;20073;-68
2022/02/16 09:57:43;;;;;;;27.42;17.70;;;;;;;;;;10258588;28;20079;-68
2022/02/16 10:02:43;;;;;;;34.42;16.45;;;;;;;;;;10249430;28;20079;-68
2022/02/16 10:07:43;;;;;;;25.80;15.23;;;;;;;;;;10250736;28;20061;-68
2022/02/16 10:12:44;;;;;;;25.50;15.65;;;;;;;;;;10253195;28;20079;-68
2022/02/16 10:17:44;;;;;;;11.15;8.98;;;;;;;;;;10243548;28;20103;-69
2022/02/16 10:22:44;;;;;;;24.65;14.43;;;;;;;;;;10243789;28;20078;-68
2022/02/16 10:28:02;;;;;;;13.32;9.68;;;;;;;;;;10243863;28;20550;-68
2022/02/16 10:33:17;;;;;;;12.63;8.68;;;;;;;;;;10243939;28;20065;-69
2022/02/16 10:38:17;;;;;;;20.20;13.33;;;;;;;;;;10245468;28;20101;-69
2022/02/16 10:43:15;;;;;;;14.32;9.63;;;;;;;;;;10244851;28;20049;-69
2022/02/16 10:48:14;;;;;;;26.00;12.57;;;;;;;;;;10244943;28;20073;-69
2022/02/16 10:53:12;;;;;;;18.83;11.30;;;;;;;;;;10244805;28;20075;-69
2022/02/16 10:58:13;;;;;;;16.63;10.43;;;;;;;;;;10247876;28;20497;-69
2022/02/16 11:03:15;;;;;;;8.40;7.20;;;;;;;;;;10247309;28;20042;-69
2022/02/16 11:08:14;;;;;;;14.30;9.02;;;;;;;;;;10246268;28;20075;-69
2022/02/16 11:13:16;;;;;;;9.73;7.60;;;;;;;;;;10245892;28;20114;-69
2022/02/16 11:18:15;;;;;;;9.25;7.03;;;;;;;;;;10248182;28;20076;-69
2022/02/16 11:23:14;;;;;;;29.40;17.10;;;;;;;;;;10247330;28;20061;-69
2022/02/16 11:28:13;;;;;;;18.42;10.23;;;;;;;;;;10255198;28;20461;-68
2022/02/16 11:33:14;;;;;;;11.75;9.27;;;;;;;;;;10251862;28;20037;-69
2022/02/16 11:38:13;;;;;;;17.27;10.95;;;;;;;;;;10241958;28;20065;-69
2022/02/16 11:43:14;;;;;;;30.92;19.67;;;;;;;;;;10241549;28;20068;-69
2022/02/16 11:48:33;;;;;;;14.32;10.10;;;;;;;;;;10241561;28;20073;-69
2022/02/16 11:53:31;;;;;;;14.13;10.40;;;;;;;;;;10243555;28;20067;-69
2022/02/16 11:58:32;;;;;;;13.55;10.45;;;;;;;;;;10243859;28;20057;-69
2022/02/16 12:03:32;;;;;;;12.90;9.25;;;;;;;;;;10243723;28;20079;-69
2022/02/16 12:08:33;;;;;;;14.73;9.07;;;;;;;;;;10243142;28;20070;-69
2022/02/16 12:13:35;;;;;;;17.42;10.05;;;;;;;;;;10245018;28;20337;-69
2022/02/16 12:18:34;;;;;;;25.40;18.65;;;;;;;;;;10244797;28;20420;-69
2022/02/16 12:23:40;;;;;;;16.10;11.57;;;;;;;;;;10245883;28;20057;-69
2022/02/16 12:28:51;;;;;;;23.60;17.38;;;;;;;;;;10245434;28;20060;-69
2022/02/16 12:33:53;;;;;;;20.48;11.70;;;;;;;;;;10246053;28;20076;-69
2022/02/16 12:38:54;;;;;;;9.48;6.55;;;;;;;;;;10251498;28;20083;-69
2022/02/16 12:43:58;;;;;;;10.60;6.75;;;;;;;;;;10239996;28;20041;-69
2022/02/16 12:48:57;;;;;;;16.07;10.93;;;;;;;;;;10243845;28;20068;-69
2022/02/16 12:53:57;;;;;;;20.40;11.65;;;;;;;;;;10249844;28;20080;-69
2022/02/16 12:58:56;;;;;;;9.85;5.35;;;;;;;;;;10256124;28;20087;-69
2022/02/16 13:04:03;;;;;;;13.00;6.35;;;;;;;;;;10252132;28;20068;-67
2022/02/16 13:09:02;;;;;;;10.18;7.75;;;;;;;;;;10251037;28;20065;-67
2022/02/16 13:14:07;;;;;;;15.50;8.82;;;;;;;;;;10252118;28;20057;-67
2022/02/16 13:19:07;;;;;;;56.05;37.33;;;;;;;;;;10251967;28;20063;-67
2022/02/16 13:24:06;;;;;;;6.85;5.78;;;;;;;;;;10256309;28;20081;-67
2022/02/16 13:29:05;;;;;;;13.75;7.28;;;;;;;;;;10253413;28;20427;-67
2022/02/16 13:34:05;;;;;;;10.25;6.35;;;;;;;;;;10258727;28;20056;-67
2022/02/16 13:39:14;;;;;;;7.20;4.60;;;;;;;;;;10254350;28;20080;-67
2022/02/16 13:44:21;;;;;;;29.80;21.45;;;;;;;;;;10258746;28;20137;-67
2022/02/16 13:49:20;;;;;;;10.88;4.35;;;;;;;;;;10254858;28;20081;-67
2022/02/16 13:54:21;;;;;;;6.13;4.43;;;;;;;;;;10259427;28;20466;-67
2022/02/16 13:59:19;;;;;;;10.85;8.68;;;;;;;;;;10263812;28;20080;-67
2022/02/16 14:04:18;;;;;;;12.38;7.63;;;;;;;;;;10257699;28;20061;-67
2022/02/16 14:09:20;;;;;;;9.40;6.78;;;;;;;;;;10266267;28;20086;-67
2022/02/16 14:14:19;;;;;;;12.98;6.63;;;;;;;;;;10254382;28;20075;-67
2022/02/16 14:19:23;;;;;;;7.95;6.07;;;;;;;;;;10250877;28;20045;-67
2022/02/16 14:24:24;;;;;;;11.10;7.33;;;;;;;;;;10248381;28;20049;-67
2022/02/16 14:29:22;;;;;;;9.35;7.30;;;;;;;;;;10246588;28;20068;-67
2022/02/16 14:34:22;;;;;;;10.65;7.88;;;;;;;;;;10252065;28;20373;-67
2022/02/16 14:39:20;;;;;;;17.83;9.07;;;;;;;;;;10250108;28;20076;-67
2022/02/16 14:44:20;;;;;;;17.80;8.50;;;;;;;;;;10253307;28;20103;-67
2022/02/16 14:49:18;;;;;;;18.33;9.38;;;;;;;;;;10248264;28;20081;-67
2022/02/16 14:54:17;;;;;;;22.80;10.63;;;;;;;;;;10249616;28;20068;-67
2022/02/16 14:59:15;;;;;;;17.20;8.80;;;;;;;;;;10250333;28;20064;-67
2022/02/16 15:04:17;;;;;;;20.80;12.98;;;;;;;;;;10253134;28;20056;-67
2022/02/16 15:09:16;;;;;;;21.45;11.27;;;;;;;;;;10248385;28;20052;-67
2022/02/16 15:14:14;;;;;;;17.83;12.40;;;;;;;;;;10250741;28;20087;-67
2022/02/16 15:19:14;;;;;;;23.80;14.05;;;;;;;;;;10245385;28;20491;-67
2022/02/16 15:24:17;;;;;;;45.42;30.48;;;;;;;;;;10250612;28;20077;-67
2022/02/16 15:29:15;;;;;;;39.47;23.02;;;;;;;;;;10247174;28;20423;-67
2022/02/16 15:34:14;;;;;;;29.33;17.98;;;;;;;;;;10244142;28;20065;-67
2022/02/16 15:39:12;;;;;;;35.67;22.77;;;;;;;;;;10242385;28;20065;-67
2022/02/16 15:44:12;;;;;;;24.42;14.82;;;;;;;;;;10247413;28;20069;-66
2022/02/16 15:49:11;;;;;;;27.77;18.33;;;;;;;;;;10241310;28;20077;-67
2022/02/16 15:54:09;;;;;;;47.47;28.92;;;;;;;;;;10242725;28;20502;-67
2022/02/16 15:59:29;;;;;;;90.30;52.67;;;;;;;;;;10246704;28;20073;-67
2022/02/16 16:04:29;;;;;;;198.13;122.70;;;;;;;;;;10247558;28;20129;-67
2022/02/16 16:09:28;;;;;;;166.18;96.97;;;;;;;;;;10244356;28;20068;-67
2022/02/16 16:14:29;;;;;;;148.90;87.80;;;;;;;;;;10242499;28;20072;-67
2022/02/16 16:19:28;;;;;;;142.95;94.10;;;;;;;;;;10241973;28;20453;-67
2022/02/16 16:24:26;;;;;;;156.05;104.40;;;;;;;;;;10243818;28;20463;-66
2022/02/16 16:29:24;;;;;;;189.15;115.45;;;;;;;;;;10244615;28;20060;-67
2022/02/16 16:34:24;;;;;;;192.25;126.03;;;;;;;;;;10244151;28;20092;-67
2022/02/16 16:39:22;;;;;;;104.95;67.50;;;;;;;;;;10245638;28;20488;-66
2022/02/16 16:44:21;;;;;;;96.30;63.63;;;;;;;;;;10243643;28;20069;-67
2022/02/16 16:49:20;;;;;;;130.57;87.38;;;;;;;;;;10240636;28;20085;-67
2022/02/16 16:54:19;;;;;;;75.72;51.67;;;;;;;;;;10244113;28;20069;-67
2022/02/16 16:59:18;;;;;;;84.93;51.55;;;;;;;;;;10249154;28;20464;-66
2022/02/16 17:04:17;;;;;;;93.10;66.93;;;;;;;;;;10240262;28;20069;-67
2022/02/16 17:09:15;;;;;;;65.45;46.22;;;;;;;;;;10240524;28;20477;-67
2022/02/16 17:14:15;;;;;;;62.78;41.83;;;;;;;;;;10242990;28;20099;-67
2022/02/16 17:19:13;;;;;;;58.25;38.58;;;;;;;;;;10240575;28;20073;-67
2022/02/16 17:24:11;;;;;;;59.20;39.25;;;;;;;;;;10241136;28;20076;-67
2022/02/16 17:29:16;;;;;;;69.22;44.30;;;;;;;;;;10242030;28;20080;-67
2022/02/16 17:34:14;;;;;;;116.38;67.50;;;;;;;;;;10242500;28;20069;-67
2022/02/16 17:39:12;;;;;;;139.73;73.30;;;;;;;;;;10241675;28;20430;-67
2022/02/16 17:49:26;;;;;;;;;;;;;;;;;;10251650;28;20084;-67
2022/02/16 17:54:27;;;;;;;55.70;34.08;;;;;;;;;;10251244;28;20412;-66
2022/02/16 17:59:25;;;;;;;101.60;54.35;;;;;;;;;;10254078;28;20045;-67
2022/02/16 18:04:24;;;;;;;98.85;63.25;;;;;;;;;;10254594;28;20071;-66
2022/02/16 18:09:22;;;;;;;116.15;71.35;;;;;;;;;;10257253;28;20490;-67
2022/02/16 18:14:23;;;;;;;85.18;49.65;;;;;;;;;;10246743;28;20091;-66
2022/02/16 18:19:22;;;;;;;77.00;44.47;;;;;;;;;;10247600;28;20081;-67
2022/02/16 18:24:20;;;;;;;74.70;45.22;;;;;;;;;;10249791;28;20066;-67
2022/02/16 18:29:18;;;;;;;74.05;46.97;;;;;;;;;;10247386;28;20467;-67
2022/02/16 18:34:18;;;;;;;45.15;30.10;;;;;;;;;;10246882;28;20072;-65
2022/02/16 18:39:27;;;;;;;47.38;31.33;;;;;;;;;;10248592;28;20071;-67
2022/02/16 18:44:26;;;;;;;67.05;42.03;;;;;;;;;;10249103;28;20478;-67
2022/02/16 18:49:26;;;;;;;59.83;39.05;;;;;;;;;;10251097;28;20073;-66
2022/02/16 18:54:24;;;;;;;86.85;52.58;;;;;;;;;;10252936;28;20079;-66
2022/02/16 18:59:24;;;;;;;93.50;55.78;;;;;;;;;;10244542;28;20506;-67
2022/02/16 19:04:22;;;;;;;77.22;44.35;;;;;;;;;;10254341;28;20458;-66
2022/02/16 19:09:23;;;;;;;88.82;54.22;;;;;;;;;;10256209;28;20087;-65
2022/02/16 19:14:21;;;;;;;54.55;37.40;;;;;;;;;;10247375;28;20087;-65
2022/02/16 19:19:21;;;;;;;136.15;77.35;;;;;;;;;;10249201;28;20093;-66
2022/02/16 19:24:20;;;;;;;71.45;45.55;;;;;;;;;;10243915;28;20092;-66
2022/02/16 19:29:24;;;;;;;69.13;45.55;;;;;;;;;;10250679;28;20080;-67
2022/02/16 19:34:23;;;;;;;83.20;54.40;;;;;;;;;;10253519;28;20091;-67
2022/02/16 19:39:21;;;;;;;61.75;39.67;;;;;;;;;;10250157;28;20075;-65
2022/02/16 19:44:21;;;;;;;42.63;25.38;;;;;;;;;;10242583;28;20065;-66
2022/02/16 19:54:33;;;;;;;39.28;28.13;;;;;;;;;;10244962;28;20076;-66
2022/02/16 19:59:31;;;;;;;39.17;28.73;;;;;;;;;;10249028;28;20076;-64
2022/02/16 20:04:31;;;;;;;41.80;27.00;;;;;;;;;;10243796;28;20061;-66
2022/02/16 20:09:29;;;;;;;51.90;33.97;;;;;;;;;;10243834;28;20466;-64
2022/02/16 20:14:27;;;;;;;46.38;32.50;;;;;;;;;;10246420;28;20080;-65
2022/02/16 20:19:26;;;;;;;61.47;40.92;;;;;;;;;;10256597;28;20069;-64
2022/02/16 20:24:25;;;;;;;42.72;32.00;;;;;;;;;;10246185;28;20073;-64
2022/02/16 20:29:24;;;;;;;46.40;31.40;;;;;;;;;;10249609;28;20081;-65
2022/02/16 20:34:23;;;;;;;44.47;33.50;;;;;;;;;;10250379;28;20087;-64
2022/02/16 20:39:22;;;;;;;56.00;37.72;;;;;;;;;;10250716;28;20464;-64
2022/02/16 20:44:21;;;;;;;48.70;35.80;;;;;;;;;;10253020;28;20076;-65
2022/02/16 20:49:21;;;;;;;61.58;40.15;;;;;;;;;;10249950;28;20049;-65
2022/02/16 20:54:19;;;;;;;62.25;43.35;;;;;;;;;;10245011;28;20073;-64
2022/02/16 20:59:18;;;;;;;63.13;47.60;;;;;;;;;;10247469;28;20092;-65
2022/02/16 21:04:17;;;;;;;62.03;41.60;;;;;;;;;;10248152;28;20057;-64
2022/02/16 21:09:16;;;;;;;62.75;43.95;;;;;;;;;;10242822;28;20065;-65
2022/02/16 21:14:15;;;;;;;60.47;45.20;;;;;;;;;;10245147;28;20084;-65
2022/02/16 21:19:13;;;;;;;68.05;46.80;;;;;;;;;;10249028;28;20067;-64
2022/02/16 21:24:13;;;;;;;65.47;43.80;;;;;;;;;;10253420;28;21300;-63
2022/02/16 21:29:11;;;;;;;56.05;41.08;;;;;;;;;;10251424;28;20092;-63
2022/02/16 21:34:10;;;;;;;55.65;41.03;;;;;;;;;;10254454;28;20494;-63
2022/02/16 21:39:08;;;;;;;62.38;41.95;;;;;;;;;;10263729;28;20065;-63
2022/02/16 21:44:08;;;;;;;55.15;38.20;;;;;;;;;;10260583;28;20093;-64
2022/02/16 21:49:06;;;;;;;49.33;36.53;;;;;;;;;;10252254;28;20096;-64
2022/02/16 21:54:10;;;;;;;45.22;32.00;;;;;;;;;;10262552;28;20497;-64
2022/02/16 21:59:11;;;;;;;40.78;29.80;;;;;;;;;;10252566;28;20061;-64
2022/02/16 22:04:09;;;;;;;36.63;27.48;;;;;;;;;;10247639;28;20546;-64
2022/02/16 22:09:09;;;;;;;43.63;29.25;;;;;;;;;;10247613;28;20321;-65
2022/02/16 22:14:07;;;;;;;43.80;30.10;;;;;;;;;;10250880;28;20079;-65
2022/02/16 22:19:09;;;;;;;44.03;31.35;;;;;;;;;;10249658;28;20061;-64
2022/02/16 22:24:07;;;;;;;47.08;31.15;;;;;;;;;;10249530;28;20497;-64
2022/02/16 22:29:07;;;;;;;38.30;27.98;;;;;;;;;;10260019;28;20099;-64
2022/02/16 22:34:07;;;;;;;43.45;27.65;;;;;;;;;;10256996;28;20069;-64
2022/02/16 22:39:05;;;;;;;41.05;30.60;;;;;;;;;;10244855;28;20069;-64
2022/02/16 22:44:05;;;;;;;40.08;29.05;;;;;;;;;;10244004;28;20057;-64
2022/02/16 22:49:03;;;;;;;18.00;13.23;;;;;;;;;;10248025;28;20073;-64
2022/02/16 22:54:03;;;;;;;18.50;13.70;;;;;;;;;;10244121;28;20065;-65
2022/02/16 22:59:01;;;;;;;17.42;9.68;;;;;;;;;;10245460;28;20042;-64
2022/02/16 23:03:59;;;;;;;22.33;13.60;;;;;;;;;;10252303;28;20080;-64
2022/02/16 23:14:18;;;;;;;18.10;13.90;;;;;;;;;;10246549;28;20506;-65
2022/02/16 23:19:16;;;;;;;23.42;16.10;;;;;;;;;;10246847;28;20077;-63
2022/02/16 23:24:14;;;;;;;25.88;17.73;;;;;;;;;;10245549;28;20069;-64
2022/02/16 23:29:13;;;;;;;27.85;18.02;;;;;;;;;;10258834;28;20095;-65
2022/02/16 23:34:15;;;;;;;24.52;16.30;;;;;;;;;;10244509;28;20084;-64
2022/02/16 23:39:13;;;;;;;23.00;15.93;;;;;;;;;;10257191;28;20076;-64
2022/02/16 23:44:11;;;;;;;25.35;16.58;;;;;;;;;;10261166;28;20057;-64
2022/02/16 23:49:10;;;;;;;25.40;14.88;;;;;;;;;;10254402;28;20049;-63
2022/02/16 23:54:10;;;;;;;21.00;15.43;;;;;;;;;;10250138;28;20459;-64
2022/02/16 23:59:08;;;;;;;27.17;16.85;;;;;;;;;;10250158;28;20037;-64
